createdAt,value
2023-02-23T00:00:35.563Z,22.93
2023-02-23T00:03:03.274Z,25.73
2023-02-23T00:05:37.186Z,18.97
2023-02-23T00:08:05.148Z,20.00
2023-02-23T00:10:33.478Z,23.50
2023-02-23T00:13:01.576Z,22.20
2023-02-23T00:15:29.843Z,19.20
2023-02-23T00:17:58.980Z,25.67
2023-02-23T00:20:29.553Z,23.20
2023-02-23T00:23:00.533Z,23.57
2023-02-23T00:25:29.073Z,24.63
2023-02-23T00:27:56.098Z,19.20
2023-02-23T00:30:23.868Z,19.90
2023-02-23T00:32:52.459Z,24.50
2023-02-23T00:35:19.561Z,22.30
2023-02-23T00:37:50.179Z,18.70
2023-02-23T00:40:22.220Z,21.67
2023-02-23T00:42:51.547Z,30.00
2023-02-23T00:45:20.143Z,24.50
2023-02-23T00:47:48.718Z,27.93
2023-02-23T00:50:19.062Z,25.17
2023-02-23T00:52:45.949Z,27.63
2023-02-23T00:55:15.443Z,25.97
2023-02-23T00:57:42.796Z,44.90
2023-02-23T01:00:21.479Z,21.73
2023-02-23T01:02:49.973Z,21.97
2023-02-23T01:05:17.504Z,24.67
2023-02-23T01:07:47.478Z,22.93
2023-02-23T01:10:20.645Z,22.87
2023-02-23T01:12:54.623Z,19.03
2023-02-23T01:15:22.042Z,20.30
2023-02-23T01:17:49.076Z,21.00
2023-02-23T01:20:20.026Z,17.53
2023-02-23T01:22:52.049Z,24.77
2023-02-23T01:25:19.574Z,21.27
2023-02-23T01:27:46.752Z,22.43
2023-02-23T01:30:16.258Z,25.80
2023-02-23T01:32:43.242Z,21.93
2023-02-23T01:35:15.058Z,36.23
2023-02-23T01:37:44.039Z,26.13
2023-02-23T01:40:29.596Z,34.03
2023-02-23T01:43:26.289Z,27.40
2023-02-23T01:46:00.332Z,27.10
2023-02-23T01:48:39.764Z,21.60
2023-02-23T01:51:13.574Z,21.53
2023-02-23T01:53:52.883Z,19.20
2023-02-23T01:56:29.700Z,23.93
2023-02-23T01:59:06.995Z,17.60
2023-02-23T02:01:34.094Z,27.23
2023-02-23T02:04:07.800Z,23.80
2023-02-23T02:06:38.694Z,17.27
2023-02-23T02:09:17.303Z,23.10
2023-02-23T02:11:46.993Z,23.73
2023-02-23T02:14:33.376Z,19.57
2023-02-23T02:17:39.330Z,23.70
2023-02-23T02:20:32.594Z,22.13
2023-02-23T02:23:36.948Z,31.13
2023-02-23T02:26:38.781Z,21.93
2023-02-23T02:29:52.241Z,22.83
2023-02-23T02:33:19.286Z,31.27
2023-02-23T02:36:22.674Z,27.03
2023-02-23T02:39:37.467Z,23.87
2023-02-23T02:42:36.481Z,24.73
2023-02-23T02:45:25.178Z,18.90
2023-02-23T02:48:20.966Z,22.90
2023-02-23T02:51:02.338Z,29.77
2023-02-23T02:54:12.327Z,25.40
2023-02-23T02:56:44.565Z,16.67
2023-02-23T02:59:39.695Z,23.27
2023-02-23T03:02:33.685Z,26.40
2023-02-23T03:05:19.333Z,27.73
2023-02-23T03:08:30.292Z,27.43
2023-02-23T03:11:26.547Z,24.07
2023-02-23T03:14:42.042Z,21.15
2023-02-23T03:17:49.268Z,21.23
2023-02-23T03:20:52.817Z,23.70
2023-02-23T03:24:30.417Z,25.00
2023-02-23T03:27:42.082Z,24.93
2023-02-23T03:30:46.933Z,33.13
2023-02-23T03:33:53.804Z,29.73
2023-02-23T03:36:47.582Z,26.08
2023-02-23T03:39:57.628Z,28.73
2023-02-23T03:42:54.016Z,25.00
2023-02-23T03:45:44.674Z,23.23
2023-02-23T03:48:37.716Z,26.17
2023-02-23T03:51:29.959Z,27.20
2023-02-23T03:54:27.017Z,26.17
2023-02-23T03:57:20.896Z,26.67
2023-02-23T04:00:19.471Z,37.85
2023-02-23T04:03:13.536Z,25.10
2023-02-23T04:06:03.555Z,28.60
2023-02-23T04:08:57.550Z,27.80
2023-02-23T04:12:00.966Z,23.90
2023-02-23T04:14:56.780Z,24.07
2023-02-23T04:17:31.036Z,19.42
2023-02-23T04:19:58.328Z,29.20
2023-02-23T04:22:26.208Z,27.40
2023-02-23T04:24:53.131Z,26.47
2023-02-23T04:27:20.696Z,27.07
2023-02-23T04:29:47.726Z,23.20
2023-02-23T04:32:21.549Z,24.33
2023-02-23T04:34:51.720Z,32.80
2023-02-23T04:37:21.247Z,22.70
2023-02-23T04:39:51.371Z,27.02
2023-02-23T04:42:19.127Z,27.93
2023-02-23T04:44:47.120Z,26.00
2023-02-23T04:47:20.725Z,34.63
2023-02-23T04:49:47.767Z,29.08
2023-02-23T04:52:14.706Z,24.40
2023-02-23T04:54:42.262Z,21.92
2023-02-23T04:57:10.280Z,22.42
2023-02-23T04:59:37.785Z,31.27
2023-02-23T05:02:05.041Z,27.58
2023-02-23T05:04:35.732Z,24.02
2023-02-23T05:07:05.293Z,32.58
2023-02-23T05:09:33.283Z,27.47
2023-02-23T05:12:00.588Z,18.50
2023-02-23T05:14:28.052Z,24.23
2023-02-23T05:16:55.017Z,24.73
2023-02-23T05:19:22.465Z,23.60
2023-02-23T05:21:50.649Z,35.43
2023-02-23T05:24:19.505Z,26.55
2023-02-23T05:26:46.758Z,25.63
2023-02-23T05:29:13.644Z,27.20
2023-02-23T05:31:40.687Z,30.00
2023-02-23T05:34:07.966Z,24.40
2023-02-23T05:36:37.941Z,24.30
2023-02-23T05:39:05.173Z,28.83
2023-02-23T05:41:32.232Z,21.60
2023-02-23T05:43:59.417Z,25.93
2023-02-23T05:46:28.005Z,30.02
2023-02-23T05:49:04.563Z,24.50
2023-02-23T05:51:34.941Z,33.70
2023-02-23T05:54:03.452Z,25.30
2023-02-23T05:56:36.771Z,25.50
2023-02-23T05:59:04.849Z,25.53
2023-02-23T06:01:32.787Z,27.27
2023-02-23T06:04:00.199Z,27.02
2023-02-23T06:06:28.370Z,31.88
2023-02-23T06:08:56.631Z,25.40
2023-02-23T06:11:26.319Z,26.25
2023-02-23T06:13:53.324Z,27.20
2023-02-23T06:16:21.087Z,28.42
2023-02-23T06:18:51.313Z,25.67
2023-02-23T06:21:18.695Z,32.25
2023-02-23T06:23:48.658Z,21.47
2023-02-23T06:26:15.639Z,27.13
2023-02-23T06:28:45.614Z,23.05
2023-02-23T06:31:13.683Z,30.93
2023-02-23T06:33:40.569Z,23.60
2023-02-23T06:36:08.196Z,27.13
2023-02-23T06:38:35.846Z,24.92
2023-02-23T06:41:12.404Z,24.02
2023-02-23T06:43:39.663Z,24.42
2023-02-23T06:46:07.430Z,25.88
2023-02-23T06:48:35.458Z,25.60
2023-02-23T06:51:03.840Z,25.65
2023-02-23T06:53:31.297Z,22.75
2023-02-23T06:55:58.185Z,22.95
2023-02-23T06:58:25.822Z,25.85
2023-02-23T07:00:56.862Z,26.00
2023-02-23T07:03:24.540Z,33.20
2023-02-23T07:05:56.310Z,26.00
2023-02-23T07:08:23.291Z,21.20
2023-02-23T07:10:52.234Z,28.65
2023-02-23T07:13:22.163Z,17.80
2023-02-23T07:15:49.431Z,23.97
2023-02-23T07:18:16.359Z,19.70
2023-02-23T07:20:43.655Z,29.38
2023-02-23T07:23:20.135Z,31.50
2023-02-23T07:25:47.044Z,23.07
2023-02-23T07:28:14.673Z,26.33
2023-02-23T07:30:48.198Z,30.85
2023-02-23T07:33:33.006Z,20.57
2023-02-23T07:36:00.054Z,30.77
2023-02-23T07:39:08.911Z,23.75
2023-02-23T07:41:39.795Z,22.75
2023-02-23T07:44:16.328Z,28.63
2023-02-23T07:46:43.488Z,26.97
2023-02-23T07:49:10.549Z,24.87
2023-02-23T07:51:41.316Z,26.77
2023-02-23T07:54:08.604Z,27.33
2023-02-23T07:56:35.838Z,24.50
2023-02-23T07:59:03.858Z,21.73
2023-02-23T08:01:31.110Z,25.97
2023-02-23T08:03:58.241Z,24.97
2023-02-23T08:06:34.452Z,22.30
2023-02-23T08:09:08.836Z,23.80
2023-02-23T08:11:35.937Z,27.27
2023-02-23T08:14:13.002Z,29.60
2023-02-23T08:16:41.203Z,26.67
2023-02-23T08:19:09.141Z,24.27
2023-02-23T08:21:36.122Z,21.40
2023-02-23T08:24:09.605Z,25.00
2023-02-23T08:26:40.525Z,32.40
2023-02-23T08:29:08.117Z,22.83
2023-02-23T08:31:38.175Z,26.90
2023-02-23T08:34:07.737Z,28.23
2023-02-23T08:36:34.809Z,21.33
2023-02-23T08:39:02.333Z,34.63
2023-02-23T08:41:30.129Z,23.67
2023-02-23T08:43:58.957Z,28.30
2023-02-23T08:46:29.029Z,20.30
2023-02-23T08:51:46.990Z,22.93
2023-02-23T08:54:16.222Z,24.00
2023-02-23T08:56:45.845Z,29.97
2023-02-23T08:59:19.532Z,27.63
2023-02-23T09:04:38.496Z,23.80
2023-02-23T09:07:16.897Z,21.17
2023-02-23T09:09:45.601Z,29.83
2023-02-23T09:12:12.737Z,27.63
2023-02-23T09:14:40.973Z,26.60
2023-02-23T09:17:08.468Z,25.80
2023-02-23T09:19:35.695Z,22.93
2023-02-23T09:22:03.078Z,23.03
2023-02-23T09:24:36.725Z,26.90
2023-02-23T09:27:13.634Z,26.03
2023-02-23T09:29:49.280Z,86.27
2023-02-23T09:35:27.671Z,27.23
2023-02-23T09:37:58.590Z,26.93
2023-02-23T09:40:39.496Z,29.30
2023-02-23T09:43:23.063Z,34.20
2023-02-23T09:46:34.639Z,24.17
2023-02-23T09:49:22.594Z,27.30
2023-02-23T09:51:59.024Z,21.50
2023-02-23T09:54:34.650Z,19.00
2023-02-23T09:57:37.174Z,28.27
2023-02-23T10:00:17.652Z,19.50
2023-02-23T10:03:15.856Z,21.27
2023-02-23T10:06:01.347Z,22.53
2023-02-23T10:09:32.113Z,21.77
2023-02-23T10:12:12.393Z,28.53
2023-02-23T10:15:24.671Z,31.93
2023-02-23T10:22:09.193Z,23.93
2023-02-23T10:25:07.420Z,29.83
2023-02-23T10:27:50.407Z,24.10
2023-02-23T10:30:30.789Z,27.30
2023-02-23T10:33:12.739Z,19.10
2023-02-23T10:35:46.842Z,25.50
2023-02-23T10:38:26.581Z,25.10
2023-02-23T10:41:14.599Z,24.23
2023-02-23T10:43:48.578Z,17.30
2023-02-23T10:46:48.892Z,20.03
2023-02-23T10:49:25.552Z,24.33
2023-02-23T10:52:03.698Z,24.23
2023-02-23T10:54:53.400Z,21.77
2023-02-23T10:57:42.557Z,23.13
2023-02-23T11:00:17.047Z,29.70
2023-02-23T11:02:48.603Z,25.00
2023-02-23T11:05:44.525Z,24.27
2023-02-23T11:08:36.795Z,23.37
2023-02-23T11:11:16.122Z,24.97
2023-02-23T11:14:11.509Z,24.20
2023-02-23T11:16:48.186Z,28.03
2023-02-23T11:19:35.523Z,20.83
2023-02-23T11:34:09.258Z,25.70
2023-02-23T11:37:39.923Z,26.03
2023-02-23T11:40:36.304Z,27.00
2023-02-23T11:43:32.224Z,21.47
2023-02-23T11:49:56.440Z,23.33
2023-02-23T11:53:03.911Z,26.80
2023-02-23T11:56:14.611Z,24.13
2023-02-23T11:59:22.779Z,20.60
2023-02-23T12:02:51.528Z,23.40
2023-02-23T12:05:30.360Z,22.37
2023-02-23T12:10:12.222Z,30.17
2023-02-23T12:17:57.429Z,24.90
2023-02-23T12:21:52.588Z,28.33
2023-02-23T12:28:27.987Z,23.00
2023-02-23T12:32:15.415Z,27.90
2023-02-23T12:40:04.235Z,26.03
2023-02-23T12:54:22.220Z,23.77
2023-02-23T12:58:24.544Z,28.80
2023-02-23T13:19:02.911Z,27.73
2023-02-23T13:22:35.490Z,27.43
2023-02-23T13:30:06.565Z,24.47
2023-02-23T13:33:44.640Z,20.60
2023-02-23T13:37:16.590Z,25.33
2023-02-23T13:45:14.090Z,26.67
2023-02-23T13:49:39.264Z,29.17
2023-02-23T13:53:19.408Z,24.77
2023-02-23T14:05:06.136Z,24.50
2023-02-23T14:16:17.369Z,35.53
2023-02-23T14:23:23.050Z,26.60
2023-02-23T14:26:57.129Z,29.77
2023-02-23T14:30:29.958Z,31.30
2023-02-23T14:33:57.101Z,31.63
2023-02-23T14:38:47.470Z,28.10
2023-02-23T14:52:14.736Z,35.73
2023-02-23T14:58:01.973Z,32.70
2023-02-23T15:05:20.057Z,32.63
2023-02-23T15:08:39.539Z,32.63
2023-02-23T15:12:27.838Z,37.67
2023-02-23T15:23:06.469Z,33.93
2023-02-23T15:26:36.532Z,36.50
2023-02-23T15:30:35.633Z,35.17
2023-02-23T15:34:04.618Z,42.33
2023-02-23T15:49:26.084Z,42.13
2023-02-23T15:53:12.933Z,41.57
2023-02-23T16:00:47.151Z,40.37
2023-02-23T16:03:56.778Z,42.60
2023-02-23T16:11:52.140Z,47.40
2023-02-23T16:15:40.247Z,47.30
2023-02-23T16:38:27.534Z,56.80
2023-02-23T16:40:55.400Z,47.57
2023-02-23T16:43:22.926Z,51.60
2023-02-23T16:45:51.643Z,63.80
2023-02-23T16:48:19.272Z,58.73
2023-02-23T16:50:47.973Z,59.80
2023-02-23T16:53:16.954Z,61.07
2023-02-23T16:56:00.926Z,58.63
2023-02-23T16:58:31.992Z,64.43
2023-02-23T17:01:02.319Z,58.80
2023-02-23T17:03:31.361Z,61.90
2023-02-23T17:06:03.378Z,66.97
2023-02-23T17:08:38.167Z,74.67
2023-02-23T17:11:12.908Z,59.47
2023-02-23T17:13:42.972Z,60.93
2023-02-23T17:16:23.379Z,63.20
2023-02-23T17:19:01.474Z,55.80
2023-02-23T17:21:34.560Z,66.47
2023-02-23T17:24:07.461Z,59.93
2023-02-23T17:26:37.803Z,60.00
2023-02-23T17:29:19.607Z,65.73
2023-02-23T17:31:47.343Z,67.03
2023-02-23T17:34:14.882Z,67.57
2023-02-23T17:36:52.230Z,72.30
2023-02-23T17:39:22.799Z,62.03
2023-02-23T17:41:55.682Z,67.27
2023-02-23T17:44:25.423Z,66.67
2023-02-23T17:46:55.718Z,69.53
2023-02-23T17:49:25.794Z,108.07
2023-02-23T17:51:55.242Z,98.37
2023-02-23T18:08:24.501Z,69.13
2023-02-23T18:15:27.971Z,74.40
2023-02-23T18:32:02.636Z,74.00
2023-02-23T18:47:45.065Z,71.10
2023-02-23T18:53:56.145Z,71.47
2023-02-23T19:01:45.551Z,70.50
2023-02-23T19:04:30.592Z,69.90
2023-02-23T19:07:27.386Z,68.70
2023-02-23T19:10:48.088Z,78.00
2023-02-23T19:31:23.514Z,59.53
2023-02-23T19:32:37.682Z,68.63
2023-02-23T19:34:01.782Z,68.17
2023-02-23T19:36:33.986Z,69.53
2023-02-23T19:39:10.717Z,59.03
2023-02-23T19:41:49.232Z,61.90
2023-02-23T19:44:17.375Z,63.53
2023-02-23T19:46:44.510Z,53.03
2023-02-23T19:49:17.073Z,49.33
2023-02-23T19:51:53.275Z,48.63
2023-02-23T19:57:31.512Z,43.90
2023-02-23T20:00:07.894Z,36.33
2023-02-23T20:02:47.366Z,35.13
2023-02-23T20:05:18.613Z,30.57
2023-02-23T20:07:45.908Z,33.13
2023-02-23T20:10:16.183Z,37.60
2023-02-23T20:12:44.875Z,41.47
2023-02-23T20:15:14.816Z,44.53
2023-02-23T20:17:48.127Z,46.97
2023-02-23T20:20:15.984Z,50.93
2023-02-23T20:22:54.305Z,54.77
2023-02-23T20:25:27.143Z,54.20
2023-02-23T20:27:55.601Z,50.23
2023-02-23T20:30:31.662Z,51.37
2023-02-23T20:33:11.910Z,52.30
2023-02-23T20:35:47.746Z,48.37
2023-02-23T20:38:24.510Z,57.20
2023-02-23T20:40:53.151Z,54.70
2023-02-23T20:43:22.035Z,55.77
2023-02-23T20:45:51.527Z,48.17
2023-02-23T20:48:18.543Z,47.30
2023-02-23T20:50:45.748Z,53.73
2023-02-23T20:53:18.503Z,50.67
2023-02-23T20:55:53.388Z,51.80
2023-02-23T20:58:29.210Z,62.07
2023-02-23T21:00:58.312Z,55.40
2023-02-23T21:03:28.225Z,54.90
2023-02-23T21:06:00.217Z,56.90
2023-02-23T21:08:30.003Z,51.40
2023-02-23T21:10:58.288Z,62.50
2023-02-23T21:13:29.405Z,57.40
2023-02-23T21:16:07.244Z,61.50
2023-02-23T21:18:34.345Z,48.00
2023-02-23T21:21:11.425Z,52.10
2023-02-23T21:23:44.778Z,56.10
2023-02-23T21:29:02.239Z,52.00
2023-02-23T21:31:29.615Z,64.17
2023-02-23T21:34:05.994Z,55.73
2023-02-23T21:36:37.339Z,56.00
2023-02-23T21:39:08.439Z,56.03
2023-02-23T21:41:42.893Z,58.23
2023-02-23T21:44:12.282Z,55.63
2023-02-23T21:46:40.561Z,61.23
2023-02-23T21:49:19.851Z,50.70
2023-02-23T21:51:48.052Z,62.63
2023-02-23T21:54:15.670Z,57.57
2023-02-23T21:56:42.840Z,67.17
2023-02-23T21:59:13.270Z,53.37
2023-02-23T22:01:42.964Z,55.17
2023-02-23T22:04:15.262Z,56.73
2023-02-23T22:06:45.115Z,61.90
2023-02-23T22:09:16.009Z,53.47
2023-02-23T22:11:47.615Z,54.40
2023-02-23T22:14:18.130Z,58.40
2023-02-23T22:16:47.468Z,61.97
2023-02-23T22:19:14.749Z,68.63
2023-02-23T22:21:44.367Z,62.87
2023-02-23T22:24:15.082Z,60.43
2023-02-23T22:26:54.505Z,50.07
2023-02-23T22:29:26.120Z,54.20
2023-02-23T22:31:56.266Z,60.53
2023-02-23T22:34:23.414Z,48.43
2023-02-23T22:36:51.145Z,63.60
2023-02-23T22:39:18.498Z,49.63
2023-02-23T22:41:48.210Z,55.43
2023-02-23T22:44:20.297Z,51.33
2023-02-23T22:46:48.578Z,55.13
2023-02-23T22:49:16.740Z,58.83
2023-02-23T22:51:44.401Z,51.17
2023-02-23T22:54:15.596Z,50.83
2023-02-23T22:56:44.822Z,46.73
2023-02-23T22:59:20.392Z,48.03
2023-02-23T23:01:49.041Z,47.63
2023-02-23T23:04:16.339Z,48.00
2023-02-23T23:06:44.062Z,48.97
2023-02-23T23:09:12.682Z,54.57
2023-02-23T23:11:44.075Z,55.77
2023-02-23T23:14:13.130Z,44.70
2023-02-23T23:16:47.798Z,49.07
2023-02-23T23:19:25.996Z,54.37
2023-02-23T23:21:56.450Z,48.07
2023-02-23T23:24:26.297Z,47.47
2023-02-23T23:26:55.445Z,50.53
2023-02-23T23:29:29.702Z,53.83
2023-02-23T23:31:57.289Z,55.10
2023-02-23T23:34:25.337Z,47.07
2023-02-23T23:36:56.594Z,50.80
2023-02-23T23:39:26.121Z,44.67
2023-02-23T23:42:01.941Z,44.63
2023-02-23T23:44:32.523Z,40.60
2023-02-23T23:47:05.189Z,43.50
2023-02-23T23:49:40.002Z,37.97
2023-02-23T23:52:09.621Z,45.30
2023-02-23T23:54:42.692Z,41.60
2023-02-23T23:57:11.648Z,46.80
2023-02-23T23:59:45.991Z,42.43
